Temp: 10.2°C   Baro: 1017.5mb
  Wind: 6.9mph   Dir: NW (308°)
  Rain: 0.0mm (0.0mm/hr)
  Sun: 292W/m2  Humidity: 61%

Historic data

Bath Spa Weather Station Historical Data
Daily Summary for February 24, 2024 Units:  Metric    English   Both
Daily Weekly Monthly Yearly Custom
  High: Low: Average:
Temperature: 7.4 °C -0.7 °C 2.6 °C
Dew Point: 5.6 °C -1.7 °C 1.4 °C
Humidity: 95% 81% 92%
Wind Speed: 6.3km/h 0km/h 1km/h
Wind Gust: 9.7km/h - -
Wind- - WSW
Pressure: 999.2 hPa 991.8 hPa -
Precipitation: 0.51 mm    
Historical Graphs
 
 
Tabular Data for February 24, 2024
Time Temperature Dew Point Pressure Wind Wind Speed Wind Gust Humidity Rainfall Rate (Hourly) solar
00:09 0.3 °C -0.8 °C 991.8 hPa Calm     92% 0 mm 0 W/m2
00:14 0.3 °C -0.8 °C 991.8 hPa Calm     92% 0 mm 0 W/m2
00:19 0.2 °C -0.9 °C 991.8 hPa Calm     92% 0 mm 0 W/m2
00:24 0.1 °C -1 °C 991.8 hPa Calm     92% 0 mm 0 W/m2
00:29 -0.1 °C -1.2 °C 991.8 hPa Calm     92% 0 mm 0 W/m2
00:34 -0.1 °C -1.2 °C 992.1 hPa Calm     92% 0 mm 0 W/m2
00:39 -0.1 °C -1.1 °C 992.1 hPa Calm     92.8% 0 mm 0 W/m2
00:44 -0.1 °C -1.1 °C 992.1 hPa Calm     93% 0 mm 0 W/m2
00:49 -0.2 °C -1.2 °C 992.1 hPa Calm     92.8% 0 mm 0 W/m2
00:54 -0.2 °C -1.2 °C 992.1 hPa Calm     92.8% 0 mm 0 W/m2
00:59 -0.2 °C -1.3 °C 992.1 hPa Calm     92.2% 0 mm 0 W/m2
01:04 -0.3 °C -1.3 °C 992.1 hPa Calm     92.8% 0 mm 0 W/m2
01:09 -0.3 °C -1.3 °C 992.4 hPa Calm     93% 0 mm 0 W/m2
01:14 -0.3 °C -1.3 °C 992.4 hPa Calm     93% 0 mm 0 W/m2
01:19 -0.3 °C -1.3 °C 992.4 hPa Calm     93% 0 mm 0 W/m2
01:24 -0.4 °C -1.4 °C 992.4 hPa Calm     93% 0 mm 0 W/m2
01:29 -0.4 °C -1.4 °C 992.4 hPa Calm     93% 0 mm 0 W/m2
01:34 -0.4 °C -1.4 °C 992.4 hPa Calm     93% 0 mm 0 W/m2
01:39 -0.4 °C -1.4 °C 992.4 hPa Calm     93% 0 mm 0 W/m2
01:44 -0.4 °C -1.4 °C 992.4 hPa Calm     93% 0 mm 0 W/m2
01:49 -0.4 °C -1.4 °C 992.4 hPa Calm     93% 0 mm 0 W/m2
01:54 -0.4 °C -1.4 °C 992.4 hPa Calm     93% 0 mm 0 W/m2
01:59 -0.5 °C -1.5 °C 992.1 hPa Calm     93% 0 mm 0 W/m2
02:04 -0.6 °C -1.6 °C 992.4 hPa Calm     93% 0 mm 0 W/m2
02:09 -0.7 °C -1.7 °C 992.4 hPa Calm     93% 0 mm 0 W/m2
02:14 -0.6 °C -1.6 °C 992.4 hPa Calm     93% 0 mm 0 W/m2
02:19 -0.6 °C -1.6 °C 992.4 hPa Calm     93% 0 mm 0 W/m2
02:24 -0.5 °C -1.5 °C 992.4 hPa Calm     93% 0 mm 0 W/m2
02:29 -0.5 °C -1.5 °C 992.4 hPa Calm     93% 0 mm 0 W/m2
02:34 -0.5 °C -1.5 °C 992.4 hPa Calm     93% 0 mm 0 W/m2
02:39 -0.6 °C -1.6 °C 992.4 hPa Calm     93% 0 mm 0 W/m2
02:44 -0.6 °C -1.6 °C 992.4 hPa West 1 km/h 4.8 km/h 93% 0 mm 0 W/m2
02:49 -0.5 °C -1.5 °C 992.4 hPa Calm     93% 0 mm 0 W/m2
02:54 -0.4 °C -1.4 °C 992.4 hPa Calm     93% 0 mm 0 W/m2
02:59 -0.4 °C -1.4 °C 992.4 hPa Calm     93% 0 mm 0 W/m2
03:04 -0.5 °C -1.5 °C 992.4 hPa Calm     93% 0 mm 0 W/m2
03:09 -0.6 °C -1.6 °C 992.4 hPa Calm     93% 0 mm 0 W/m2
03:14 -0.6 °C -1.4 °C 992.4 hPa Calm     93.8% 0 mm 0 W/m2
03:19 -0.7 °C -1.5 °C 992.4 hPa Calm     93.6% 0 mm 0 W/m2
03:24 -0.6 °C -1.4 °C 992.4 hPa Calm     94% 0 mm 0 W/m2
03:29 -0.6 °C -1.4 °C 992.4 hPa Calm     94% 0 mm 0 W/m2
03:34 -0.4 °C -1.2 °C 992.8 hPa Calm     94% 0 mm 0 W/m2
03:39 -0.4 °C -1.2 °C 992.8 hPa West 1 km/h 3.2 km/h 94% 0 mm 0 W/m2
03:44 -0.4 °C -1.2 °C 992.8 hPa West 0.3 km/h 3.2 km/h 94% 0 mm 0 W/m2
03:49 -0.4 °C -1.2 °C 992.8 hPa Calm   1.6 km/h 94% 0 mm 0 W/m2
03:54 -0.4 °C -1.2 °C 992.8 hPa Calm     94% 0 mm 0 W/m2
03:59 -0.4 °C -1.2 °C 992.8 hPa Calm   1.6 km/h 94% 0 mm 0 W/m2
04:04 -0.4 °C -1.2 °C 992.8 hPa West 2.9 km/h 4.8 km/h 94% 0 mm 0 W/m2
04:09 -0.3 °C -1.2 °C 992.8 hPa West 2.6 km/h 4.8 km/h 94% 0 mm 0 W/m2
04:14 -0.2 °C -1 °C 992.8 hPa West 1.6 km/h 4.8 km/h 94% 0 mm 0 W/m2
04:19 -0.2 °C -1 °C 992.8 hPa West 1.1 km/h 3.2 km/h 94% 0 mm 0 W/m2
04:24 -0.3 °C -1.1 °C 992.8 hPa Calm   3.2 km/h 94% 0 mm 0 W/m2
04:29 -0.2 °C -0.9 °C 992.8 hPa Calm     94% 0 mm 0 W/m2
04:34 -0.1 °C -0.9 °C 992.8 hPa Calm     94% 0 mm 0 W/m2
04:39 -0.2 °C -0.9 °C 992.8 hPa West 1 km/h 3.2 km/h 94% 0 mm 0 W/m2
04:44 -0.1 °C -0.9 °C 993.1 hPa West 0.8 km/h 3.2 km/h 94% 0 mm 0 W/m2
04:49 0.1 °C -0.8 °C 993.1 hPa Calm     94% 0 mm 0 W/m2
04:54 0.2 °C -0.7 °C 993.1 hPa Calm     94% 0 mm 0 W/m2
04:59 0.2 °C -0.7 °C 993.1 hPa Calm     94% 0 mm 0 W/m2
05:04 0.2 °C -0.7 °C 993.1 hPa Calm     94% 0 mm 0 W/m2
05:09 0.3 °C -0.6 °C 993.1 hPa Calm     94% 0 mm 0 W/m2
05:14 0.3 °C -0.6 °C 993.1 hPa Calm     94% 0 mm 0 W/m2
05:19 0.5 °C -0.4 °C 993.1 hPa Calm     94% 0 mm 0 W/m2
05:24 0.5 °C -0.4 °C 993.1 hPa Calm     94% 0 mm 0 W/m2
05:29 0.4 °C -0.4 °C 993.1 hPa Calm     94% 0 mm 0 W/m2
05:34 0.4 °C -0.5 °C 993.5 hPa Calm     94% 0 mm 0 W/m2
05:39 0.3 °C -0.6 °C 993.5 hPa West 1.3 km/h 4.8 km/h 94% 0 mm 0 W/m2
05:44 0.3 °C -0.7 °C 993.5 hPa Calm     94% 0 mm 0 W/m2
05:49 0.2 °C -0.7 °C 993.5 hPa Calm     94% 0 mm 0 W/m2
05:54 0.2 °C -0.7 °C 993.5 hPa Calm     94% 0 mm 0 W/m2
05:59 0.1 °C -0.8 °C 993.5 hPa Calm     94% 0 mm 0 W/m2
06:04 0.1 °C -0.8 °C 993.5 hPa Calm     94% 0 mm 0 W/m2
06:09 0.1 °C -0.8 °C 993.5 hPa Calm     94% 0 mm 0 W/m2
06:14 0.1 °C -0.8 °C 993.5 hPa Calm     94% 0 mm 0 W/m2
06:19 0.1 °C -0.8 °C 993.5 hPa Calm     94% 0.25 mm 0 W/m2
06:24 0.1 °C -0.8 °C 993.5 hPa Calm     94% 0.25 mm 0 W/m2
06:29 0.1 °C -0.8 °C 993.5 hPa Calm     94% 0.25 mm 0 W/m2
06:34 0 °C -0.8 °C 993.5 hPa Calm     94% 0.25 mm 0 W/m2
06:39 0 °C -0.8 °C 993.5 hPa Calm     94% 0.25 mm 0 W/m2
06:44 0.1 °C -0.8 °C 993.5 hPa Calm     94% 0.25 mm 0 W/m2
06:49 0.1 °C -0.8 °C 993.5 hPa Calm     94% 0.25 mm 0 W/m2
06:54 0.1 °C -0.8 °C 993.5 hPa Calm     94% 0.25 mm 0 W/m2
06:59 0.1 °C -0.8 °C 993.5 hPa Calm     94% 0.25 mm 0 W/m2
07:04 0.1 °C -0.7 °C 993.5 hPa Calm     94.6% 0.25 mm 0 W/m2
07:09 0.2 °C -0.7 °C 993.8 hPa Calm     94% 0.25 mm 11 W/m2
07:14 0.2 °C -0.7 °C 993.8 hPa Calm     94% 0.25 mm 14 W/m2
07:19 0.2 °C -0.7 °C 993.8 hPa Calm     94% 0 mm 18 W/m2
07:24 0.3 °C -0.6 °C 993.8 hPa Calm     94% 0 mm 18 W/m2
07:29 0.3 °C -0.6 °C 993.8 hPa Calm     94.2% 0 mm 14 W/m2
07:34 0.4 °C -0.3 °C 993.8 hPa Calm     95% 0 mm 11 W/m2
07:39 0.5 °C -0.2 °C 994.1 hPa Calm     95% 0 mm 11 W/m2
07:44 0.7 °C -0.1 °C 994.1 hPa Calm     95% 0 mm 11 W/m2
07:49 0.7 °C 0 °C 994.1 hPa Calm     95% 0 mm 12 W/m2
07:54 0.8 °C 0.1 °C 994.1 hPa Calm     95% 0 mm 14 W/m2
07:59 0.8 °C 0.1 °C 994.1 hPa Calm     95% 0 mm 16 W/m2
08:04 0.9 °C 0.2 °C 994.1 hPa Calm     95% 0 mm 16 W/m2
08:09 0.9 °C 0.2 °C 994.1 hPa Calm     95% 0 mm 16 W/m2
08:14 0.9 °C 0.2 °C 994.1 hPa Calm     95% 0 mm 18 W/m2
08:19 1 °C 0.3 °C 994.1 hPa Calm     95% 0 mm 19 W/m2
08:24 1 °C 0.3 °C 994.1 hPa Calm     95% 0 mm 21 W/m2
08:29 1.1 °C 0.3 °C 994.1 hPa Calm     95% 0 mm 23 W/m2
08:34 1.1 °C 0.4 °C 994.1 hPa Calm     95% 0 mm 23 W/m2
08:39 1.1 °C 0.4 °C 994.5 hPa Calm     95% 0 mm 23 W/m2
08:44 1.1 °C 0.4 °C 994.5 hPa Calm     95% 0 mm 25 W/m2
08:49 1.2 °C 0.4 °C 994.5 hPa Calm     95% 0 mm 26 W/m2
08:54 1.2 °C 0.5 °C 994.5 hPa Calm     95% 0 mm 28 W/m2
08:59 1.2 °C 0.5 °C 994.5 hPa Calm     95% 0 mm 28 W/m2
09:04 1.3 °C 0.6 °C 994.5 hPa Calm     95% 0 mm 25 W/m2
09:09 1.3 °C 0.6 °C 994.5 hPa Calm     95% 0 mm 25 W/m2
09:14 1.4 °C 0.7 °C 994.5 hPa Calm     95% 0 mm 26 W/m2
09:19 1.4 °C 0.8 °C 994.8 hPa Calm     95% 0 mm 32 W/m2
09:24 1.6 °C 0.9 °C 994.8 hPa Calm     95% 0 mm 37 W/m2
09:29 1.6 °C 0.9 °C 994.8 hPa Calm   1.6 km/h 95% 0 mm 46 W/m2
09:34 1.7 °C 1 °C 994.8 hPa Calm   1.6 km/h 95% 0 mm 60 W/m2
09:39 1.7 °C 1 °C 995.1 hPa West 0.8 km/h 1.6 km/h 95% 0 mm 76 W/m2
09:44 1.8 °C 1.1 °C 995.1 hPa West 0.6 km/h 1.6 km/h 95% 0 mm 88 W/m2
09:49 1.9 °C 1.2 °C 995.1 hPa Calm   1.6 km/h 95% 0 mm 93 W/m2
09:54 1.9 °C 1.2 °C 995.1 hPa Calm     95% 0 mm 100 W/m2
09:59 1.9 °C 1.2 °C 995.1 hPa West 0.8 km/h 3.2 km/h 95% 0 mm 100 W/m2
10:04 2 °C 1.3 °C 995.1 hPa West 1 km/h 3.2 km/h 95% 0 mm 90 W/m2
10:09 2.1 °C 1.3 °C 995.1 hPa Calm   3.2 km/h 95% 0 mm 84 W/m2
10:14 2.2 °C 1.5 °C 995.5 hPa Calm     95% 0 mm 113 W/m2
10:19 2.3 °C 1.6 °C 995.5 hPa WSW 1.8 km/h 4.8 km/h 95% 0.25 mm 146 W/m2
10:24 2.3 °C 1.6 °C 995.5 hPa SW 3.7 km/h 8 km/h 95% 0.25 mm 176 W/m2
10:29 2.3 °C 1.7 °C 995.5 hPa SW 4.7 km/h 6.4 km/h 95% 0.25 mm 239 W/m2
10:34 2.4 °C 1.7 °C 995.5 hPa SSW 3.4 km/h 6.4 km/h 95% 0.25 mm 290 W/m2
10:39 2.6 °C 1.9 °C 995.5 hPa SSW 2.7 km/h 6.4 km/h 95% 0.25 mm 374 W/m2
10:44 3.1 °C 2.4 °C 995.8 hPa SSW 0.3 km/h 6.4 km/h 95% 0.25 mm 318 W/m2
10:49 3.3 °C 2.6 °C 995.8 hPa SSW 1 km/h 3.2 km/h 95% 0.25 mm 271 W/m2
10:54 3.2 °C 2.6 °C 995.8 hPa SSW 2.6 km/h 4.8 km/h 95% 0.25 mm 246 W/m2
10:59 3.2 °C 2.6 °C 995.8 hPa SSW 2.1 km/h 4.8 km/h 95% 0.25 mm 295 W/m2
11:04 3.4 °C 2.7 °C 995.8 hPa SSW 2.6 km/h 4.8 km/h 95% 0.25 mm 443 W/m2
11:09 4 °C 3.3 °C 995.8 hPa SSW 0.6 km/h 3.2 km/h 95% 0.25 mm 446 W/m2
11:14 4.3 °C 3.6 °C 995.8 hPa SSW 1.3 km/h 4.8 km/h 95% 0.25 mm 496 W/m2
11:19 4.6 °C 3.9 °C 995.8 hPa SSW 2.1 km/h 4.8 km/h 95% 0.25 mm 490 W/m2
11:24 5.1 °C 4.3 °C 995.8 hPa SSW 2.1 km/h 6.4 km/h 95% 0 mm 503 W/m2
11:29 5.3 °C 4.6 °C 995.8 hPa SSW 1.9 km/h 4.8 km/h 95% 0 mm 552 W/m2
11:34 5.6 °C 4.8 °C 995.8 hPa SSW 3.5 km/h 6.4 km/h 95% 0 mm 610 W/m2
11:39 5.8 °C 5.2 °C 995.8 hPa SSW 2.7 km/h 4.8 km/h 95% 0 mm 652 W/m2
11:44 6.1 °C 5.4 °C 995.8 hPa SSW 2.7 km/h 4.8 km/h 95% 0 mm 656 W/m2
11:49 5.9 °C 5.3 °C 995.8 hPa SSW 2.6 km/h 4.8 km/h 95% 0 mm 197 W/m2
11:54 5.6 °C 4.7 °C 995.8 hPa SSW 4 km/h 6.4 km/h 94.2% 0 mm 151 W/m2
11:59 5.3 °C 4.3 °C 995.8 hPa SSW 1.9 km/h 6.4 km/h 94% 0 mm 144 W/m2
12:04 5.3 °C 4.4 °C 996.2 hPa SSW 3.9 km/h 6.4 km/h 94% 0 mm 130 W/m2
12:09 5.2 °C 4.3 °C 996.2 hPa SSW 0.8 km/h 4.8 km/h 93.2% 0 mm 114 W/m2
12:14 5.3 °C 4.3 °C 996.2 hPa SSW 0.3 km/h 3.2 km/h 93% 0 mm 102 W/m2
12:19 5.1 °C 4.1 °C 996.2 hPa SSW 3.1 km/h 4.8 km/h 92.8% 0 mm 86 W/m2
12:24 5.2 °C 4 °C 996.2 hPa SSW 1.1 km/h 3.2 km/h 92% 0 mm 81 W/m2
12:29 5.3 °C 4.1 °C 996.2 hPa SSW 1.4 km/h 4.8 km/h 92% 0 mm 77 W/m2
12:34 5.2 °C 3.9 °C 996.2 hPa SSW 1.4 km/h 4.8 km/h 91.6% 0 mm 81 W/m2
12:39 5.2 °C 3.9 °C 996.5 hPa SSW 1.9 km/h 4.8 km/h 91% 0 mm 79 W/m2
12:44 5.2 °C 3.9 °C 996.5 hPa SSW 1.6 km/h 3.2 km/h 91% 0 mm 77 W/m2
12:49 5.2 °C 3.9 °C 996.5 hPa SSW 0.6 km/h 4.8 km/h 91% 0 mm 72 W/m2
12:54 5.3 °C 3.8 °C 996.5 hPa SSW 3.2 km/h 6.4 km/h 90.4% 0 mm 62 W/m2
12:59 5.1 °C 3.6 °C 996.8 hPa SW 5.5 km/h 8 km/h 90% 0 mm 70 W/m2
13:04 5 °C 3.5 °C 996.8 hPa SW 1.6 km/h 6.4 km/h 90% 0 mm 102 W/m2
13:09 4.9 °C 3.4 °C 996.8 hPa SW 2.3 km/h 4.8 km/h 90% 0 mm 109 W/m2
13:14 4.9 °C 3.4 °C 996.8 hPa SW 3.7 km/h 6.4 km/h 90% 0 mm 104 W/m2
13:19 4.7 °C 3.3 °C 996.8 hPa SW 1.9 km/h 6.4 km/h 90.4% 0.25 mm 134 W/m2
13:24 4.8 °C 3.4 °C 996.8 hPa SW 2.6 km/h 4.8 km/h 90.8% 0.25 mm 178 W/m2
13:29 4.8 °C 3.5 °C 996.8 hPa SW 0.6 km/h 3.2 km/h 91% 0.25 mm 185 W/m2
13:34 4.9 °C 3.6 °C 996.8 hPa SW 0.8 km/h 3.2 km/h 91% 0.25 mm 167 W/m2
13:39 4.8 °C 3.6 °C 996.8 hPa SW 1.9 km/h 4.8 km/h 91% 0.25 mm 160 W/m2
13:44 4.9 °C 3.6 °C 996.8 hPa SW 1 km/h 3.2 km/h 91% 0.25 mm 197 W/m2
13:49 5.1 °C 3.8 °C 996.8 hPa SW 0.8 km/h 3.2 km/h 91.2% 0.25 mm 229 W/m2
13:54 5.2 °C 4.1 °C 996.8 hPa Calm     92% 0.25 mm 244 W/m2
13:59 5.4 °C 4.3 °C 996.8 hPa SW 1 km/h 3.2 km/h 92% 0.25 mm 213 W/m2
14:04 5.4 °C 4.3 °C 996.8 hPa SW 0.3 km/h 3.2 km/h 92% 0.25 mm 162 W/m2
14:09 5.3 °C 4.2 °C 996.8 hPa SW 0.8 km/h 3.2 km/h 92% 0.25 mm 186 W/m2
14:14 5.3 °C 4.1 °C 996.8 hPa SW 1.3 km/h 4.8 km/h 92% 0.25 mm 213 W/m2
14:19 5.3 °C 4.2 °C 996.8 hPa SW 1.3 km/h 4.8 km/h 92% 0.25 mm 200 W/m2
14:24 5.3 °C 4.1 °C 996.8 hPa WSW 4.5 km/h 9.7 km/h 92% 0 mm 162 W/m2
14:29 5.2 °C 3.9 °C 997.2 hPa West 2.7 km/h 6.4 km/h 92% 0 mm 120 W/m2
14:34 5.2 °C 3.9 °C 997.2 hPa West 2.6 km/h 8 km/h 92% 0 mm 116 W/m2
14:39 5.2 °C 3.9 °C 997.2 hPa West 4.8 km/h 9.7 km/h 91.4% 0 mm 114 W/m2
14:44 5.2 °C 3.9 °C 997.2 hPa West 4.5 km/h 8 km/h 91% 0 mm 104 W/m2
14:49 5.2 °C 3.9 °C 997.2 hPa West 4 km/h 8 km/h 91% 0 mm 90 W/m2
14:54 5.2 °C 3.9 °C 997.2 hPa West 2.7 km/h 8 km/h 91% 0 mm 95 W/m2
14:59 5.3 °C 4 °C 997.2 hPa West 3.2 km/h 4.8 km/h 91% 0 mm 98 W/m2
15:04 5.3 °C 4 °C 997.2 hPa West 2.9 km/h 4.8 km/h 91% 0 mm 95 W/m2
15:09 5.3 °C 4 °C 997.2 hPa West 3.9 km/h 6.4 km/h 91% 0 mm 90 W/m2
15:14 5.3 °C 4 °C 997.2 hPa West 1 km/h 4.8 km/h 91% 0 mm 100 W/m2
15:19 5.6 °C 4.2 °C 997.2 hPa Calm   1.6 km/h 91% 0 mm 130 W/m2
15:24 5.7 °C 4.3 °C 997.2 hPa Calm     91% 0 mm 169 W/m2
15:29 5.8 °C 4.4 °C 997.2 hPa West 1 km/h 4.8 km/h 90.4% 0 mm 130 W/m2
15:34 5.8 °C 4.3 °C 997.2 hPa West 1.4 km/h 4.8 km/h 90% 0 mm 160 W/m2
15:39 5.8 °C 4.3 °C 997.2 hPa West 1.9 km/h 4.8 km/h 90% 0 mm 158 W/m2
15:44 5.9 °C 4.4 °C 997.2 hPa West 0.3 km/h 3.2 km/h 89.8% 0 mm 183 W/m2
15:49 6.4 °C 4.7 °C 997.2 hPa West 2.6 km/h 4.8 km/h 89.2% 0 mm 323 W/m2
15:54 7.2 °C 5.6 °C 996.8 hPa NNW 1.9 km/h 6.4 km/h 89.4% 0 mm 206 W/m2
15:59 7.4 °C 5.6 °C 997.2 hPa NE 0.3 km/h 3.2 km/h 88.4% 0 mm 179 W/m2
16:04 7.3 °C 5.2 °C 997.2 hPa NW 2.3 km/h 6.4 km/h 86.6% 0 mm 167 W/m2
16:09 7.4 °C 5.1 °C 997.2 hPa WNW 3.9 km/h 8 km/h 85.4% 0 mm 155 W/m2
16:14 7.3 °C 4.8 °C 997.2 hPa West 4 km/h 8 km/h 84.3% 0 mm 141 W/m2
16:19 7.2 °C 4.5 °C 997.2 hPa West 3.5 km/h 6.4 km/h 83% 0 mm 132 W/m2
16:24 7.1 °C 4.3 °C 997.2 hPa West 2.1 km/h 6.4 km/h 82.2% 0 mm 118 W/m2
16:29 7.2 °C 4.3 °C 997.5 hPa WSW 4.5 km/h 6.4 km/h 82% 0 mm 105 W/m2
16:34 7.1 °C 4.1 °C 997.5 hPa WSW 4.5 km/h 9.7 km/h 81% 0 mm 91 W/m2
16:39 6.9 °C 3.9 °C 997.5 hPa WSW 6.3 km/h 9.7 km/h 81% 0 mm 77 W/m2
16:44 6.9 °C 3.9 °C 997.9 hPa WSW 1.9 km/h 6.4 km/h 81% 0 mm 65 W/m2
16:49 6.9 °C 3.9 °C 997.9 hPa WSW 2.9 km/h 8 km/h 81% 0 mm 53 W/m2
16:54 6.7 °C 3.7 °C 997.9 hPa WSW 3.2 km/h 6.4 km/h 81% 0 mm 39 W/m2
16:59 6.6 °C 3.6 °C 997.9 hPa WSW 1.9 km/h 6.4 km/h 81.2% 0 mm 32 W/m2
17:04 6.3 °C 3.4 °C 997.9 hPa WSW 2.7 km/h 6.4 km/h 81.6% 0 mm 21 W/m2
17:09 6.2 °C 3.3 °C 997.9 hPa Calm   3.2 km/h 81.8% 0 mm 16 W/m2
17:14 6 °C 3.2 °C 997.9 hPa Calm     82% 0 mm 14 W/m2
17:19 5.8 °C 3 °C 997.9 hPa Calm     82% 0 mm 11 W/m2
17:24 5.7 °C 2.9 °C 997.9 hPa Calm     82.2% 0 mm 9 W/m2
17:29 5.6 °C 2.9 °C 997.9 hPa Calm     82.8% 0 mm 7 W/m2
17:34 5.4 °C 2.7 °C 997.9 hPa Calm     83% 0 mm 5 W/m2
17:39 5.1 °C 2.6 °C 998.2 hPa Calm     84% 0 mm 0 W/m2
17:44 4.8 °C 2.4 °C 998.2 hPa Calm     84.4% 0 mm 0 W/m2
17:48 4.8 °C 2.4 °C 998.2 hPa Calm     85% 0 mm 0 W/m2
17:54 4.6 °C 2.3 °C 998.2 hPa WSW 1.3 km/h 4.8 km/h 85.4% 0 mm 0 W/m2
17:59 4.3 °C 2.2 °C 998.5 hPa WSW 2.1 km/h 4.8 km/h 86% 0 mm 0 W/m2
18:04 4.2 °C 2.1 °C 998.5 hPa WSW 4 km/h 6.4 km/h 86% 0 mm 0 W/m2
18:09 4 °C 2 °C 998.5 hPa WSW 4.5 km/h 6.4 km/h 87% 0 mm 0 W/m2
18:14 3.9 °C 1.9 °C 998.5 hPa WSW 4 km/h 4.8 km/h 87% 0 mm 0 W/m2
18:19 3.8 °C 1.9 °C 998.5 hPa WSW 3.9 km/h 6.4 km/h 87.6% 0 mm 0 W/m2
18:24 3.8 °C 2 °C 998.9 hPa WSW 4 km/h 6.4 km/h 88% 0 mm 0 W/m2
18:29 3.8 °C 2 °C 998.9 hPa WSW 3.9 km/h 6.4 km/h 88% 0 mm 0 W/m2
18:34 3.8 °C 1.9 °C 998.9 hPa WSW 2.7 km/h 6.4 km/h 88% 0 mm 0 W/m2
18:39 3.8 °C 2.2 °C 998.9 hPa WSW 3.2 km/h 4.8 km/h 88.8% 0 mm 0 W/m2
18:44 3.8 °C 2.2 °C 998.9 hPa WSW 1.8 km/h 4.8 km/h 89% 0 mm 0 W/m2
18:49 3.8 °C 2.2 °C 998.9 hPa WSW 1.8 km/h 3.2 km/h 89% 0 mm 0 W/m2
18:54 3.9 °C 2.3 °C 998.9 hPa WSW 3.2 km/h 4.8 km/h 89% 0 mm 0 W/m2
18:59 4 °C 2.4 °C 998.9 hPa WSW 2.1 km/h 4.8 km/h 89% 0 mm 0 W/m2
19:04 4.1 °C 2.5 °C 998.9 hPa WSW 1 km/h 3.2 km/h 89% 0 mm 0 W/m2
19:09 4.1 °C 2.5 °C 998.9 hPa Calm     89% 0 mm 0 W/m2
19:14 4.1 °C 2.5 °C 998.9 hPa Calm     89% 0 mm 0 W/m2
19:19 4.1 °C 2.6 °C 998.9 hPa Calm     89.6% 0 mm 0 W/m2
19:24 4 °C 2.5 °C 998.9 hPa Calm     90% 0 mm 0 W/m2
19:29 3.9 °C 2.4 °C 998.9 hPa Calm     90% 0 mm 0 W/m2
19:34 3.9 °C 2.4 °C 998.9 hPa Calm     90% 0 mm 0 W/m2
19:39 3.9 °C 2.4 °C 998.9 hPa Calm     90% 0 mm 0 W/m2
19:44 3.9 °C 2.4 °C 998.9 hPa Calm     90% 0 mm 0 W/m2
19:49 3.9 °C 2.4 °C 998.9 hPa Calm     90% 0 mm 0 W/m2
19:54 3.9 °C 2.4 °C 998.5 hPa Calm     90% 0 mm 0 W/m2
19:59 3.9 °C 2.4 °C 998.9 hPa Calm     90% 0 mm 0 W/m2
20:04 3.8 °C 2.3 °C 998.9 hPa Calm     90% 0 mm 0 W/m2
20:09 3.8 °C 2.3 °C 998.9 hPa Calm     90.2% 0 mm 0 W/m2
20:14 3.7 °C 2.3 °C 998.9 hPa Calm     90.6% 0 mm 0 W/m2
20:19 3.5 °C 2 °C 998.9 hPa Calm     90.2% 0 mm 0 W/m2
20:24 3.3 °C 1.9 °C 998.9 hPa Calm     90.5% 0 mm 0 W/m2
20:29 3.2 °C 1.9 °C 998.9 hPa Calm     90.8% 0 mm 0 W/m2
20:34 3.2 °C 1.9 °C 998.9 hPa Calm     91% 0 mm 0 W/m2
20:39 3 °C 1.7 °C 998.9 hPa WSW 1.9 km/h 3.2 km/h 91% 0 mm 0 W/m2
20:44 2.9 °C 1.7 °C 998.9 hPa Calm   3.2 km/h 91% 0 mm 0 W/m2
20:49 2.9 °C 1.6 °C 998.9 hPa Calm   3.2 km/h 91% 0 mm 0 W/m2
20:54 2.8 °C 1.5 °C 998.9 hPa Calm   3.2 km/h 91% 0 mm 0 W/m2
20:59 2.8 °C 1.5 °C 998.9 hPa Calm     91% 0 mm 0 W/m2
21:04 2.8 °C 1.5 °C 998.9 hPa Calm     91% 0 mm 0 W/m2
21:09 2.8 °C 1.5 °C 998.9 hPa Calm     91% 0 mm 0 W/m2
21:14 2.9 °C 1.7 °C 999.2 hPa Calm     91.6% 0 mm 0 W/m2
21:19 2.9 °C 1.7 °C 999.2 hPa Calm     92% 0 mm 0 W/m2
21:24 3 °C 1.8 °C 999.2 hPa Calm     92% 0 mm 0 W/m2
21:29 3.1 °C 1.9 °C 999.2 hPa Calm     92% 0 mm 0 W/m2
21:34 3.1 °C 1.9 °C 999.2 hPa Calm     92% 0 mm 0 W/m2
21:39 3.1 °C 1.9 °C 999.2 hPa Calm     92% 0 mm 0 W/m2
21:43 3.1 °C 1.9 °C 999.2 hPa Calm     92% 0 mm 0 W/m2
21:49 3.1 °C 1.9 °C 999.2 hPa Calm     92% 0 mm 0 W/m2
21:54 3.1 °C 1.9 °C 999.2 hPa Calm     92% 0 mm 0 W/m2
21:59 3.1 °C 1.8 °C 999.2 hPa Calm     92% 0 mm 0 W/m2
22:04 2.9 °C 1.7 °C 999.2 hPa Calm     92% 0 mm 0 W/m2
22:09 2.9 °C 1.7 °C 999.2 hPa Calm     92% 0 mm 0 W/m2
22:14 2.7 °C 1.5 °C 999.2 hPa Calm     92% 0 mm 0 W/m2
22:19 2.6 °C 1.4 °C 998.9 hPa WSW 0.8 km/h 3.2 km/h 92% 0 mm 0 W/m2
22:24 2.6 °C 1.3 °C 998.9 hPa Calm   3.2 km/h 92% 0 mm 0 W/m2
22:29 2.4 °C 1.2 °C 998.9 hPa WSW 0.6 km/h 3.2 km/h 92% 0 mm 0 W/m2
22:34 2.3 °C 1.2 °C 998.9 hPa Calm   3.2 km/h 92% 0 mm 0 W/m2
22:39 2.2 °C 1 °C 998.9 hPa WSW 0.3 km/h 3.2 km/h 92% 0 mm 0 W/m2
22:44 2.1 °C 0.9 °C 998.9 hPa WSW 0.6 km/h 3.2 km/h 92% 0 mm 0 W/m2
22:49 2.1 °C 0.9 °C 998.9 hPa Calm   1.6 km/h 92% 0 mm 0 W/m2
22:54 2 °C 0.8 °C 998.9 hPa WSW 0.3 km/h 1.6 km/h 92% 0 mm 0 W/m2
22:59 1.9 °C 0.7 °C 998.9 hPa WSW 0.6 km/h 1.6 km/h 92% 0 mm 0 W/m2
23:04 1.8 °C 0.7 °C 998.9 hPa WSW 1 km/h 3.2 km/h 92% 0 mm 0 W/m2
23:08 1.8 °C 0.6 °C 998.9 hPa WSW 1.6 km/h 3.2 km/h 92% 0 mm 0 W/m2
23:14 1.7 °C 0.7 °C 998.9 hPa Calm     92.8% 0 mm 0 W/m2
23:19 1.7 °C 0.7 °C 998.9 hPa Calm   1.6 km/h 93% 0 mm 0 W/m2
23:24 1.6 °C 0.4 °C 998.9 hPa Calm     92.4% 0 mm 0 W/m2
23:29 1.4 °C 0.3 °C 998.9 hPa Calm     92.6% 0 mm 0 W/m2
23:34 1.3 °C 0.3 °C 998.9 hPa Calm     93% 0 mm 0 W/m2
23:39 1.3 °C 0.3 °C 998.9 hPa Calm     93% 0 mm 0 W/m2
23:44 1.3 °C 0.3 °C 998.9 hPa Calm     93% 0 mm 0 W/m2
23:49 1.2 °C 0.2 °C 998.9 hPa Calm     93% 0 mm 0 W/m2
23:54 1.2 °C 0.2 °C 998.9 hPa Calm     93% 0 mm 0 W/m2
23:59 1.1 °C 0.1 °C 998.9 hPa Calm     93% 0 mm 0 W/m2
Bath Spa Weather
Compliments of Weather Underground - 2 mb